KCAE/CAE METAR and TAF weather

Enter ICAO airport designator
Station Type Date Time Source
KCAE METAR 2018/10/16 13:56 UTC NOAA

KCAE 161356Z 25005KT 9SM SCT010 SCT060 25/23 A3015 RMK AO2 SLP206 T02500233


Station Type Date Time Source
KCAE Decoded METAR 2018/10/16 13:56 UTC NOAA

COLUMBIA METROPOLITAN AIRPORT , SC, United States (KCAE) 33-57N 081-07W 73M
Oct 16, 2018 - 09:56 AM EDT / 2018.10.16 1356 UTC
Wind: from the WSW (250 degrees) at 6 MPH (5 KT):0
Visibility: 9 mile(s):0
Sky conditions: partly cloudy
Temperature: 77.0 F (25.0 C)
Dew Point: 73.9 F (23.3 C)
Relative Humidity: 90%
Pressure (altimeter): 30.15 in. Hg (1020 hPa)
ob: KCAE 161356Z 25005KT 9SM SCT010 SCT060 25/23 A3015 RMK AO2 SLP206 T02500233
cycle: 14

Station Type Date Time Source
KCAE TAF 2018/10/16 12:39 UTC NOAA

TAF KCAE 161136Z 1612/1712 23004KT 6SM BR SCT025 BKN150
FM161400 26005KT P6SM SCT035
FM161800 27007KT P6SM VCSH BKN040
FM170000 VRB04KT P6SM -SHRA OVC030
FM170900 VRB03KT 5SM BR OVC004


Example: see airport list